createdAt,value
2023-03-11T00:02:13.814Z,99.90
2023-03-11T00:04:40.478Z,99.90
2023-03-11T00:07:08.371Z,99.90
2023-03-11T00:09:35.394Z,99.90
2023-03-11T00:12:02.408Z,99.90
2023-03-11T00:14:29.205Z,99.90
2023-03-11T00:16:55.990Z,99.90
2023-03-11T00:19:22.739Z,99.90
2023-03-11T00:21:49.425Z,99.90
2023-03-11T00:24:16.046Z,99.90
2023-03-11T00:26:42.706Z,99.90
2023-03-11T00:29:09.313Z,99.90
2023-03-11T00:31:35.977Z,99.90
2023-03-11T00:34:02.796Z,99.90
2023-03-11T00:36:36.434Z,99.90
2023-03-11T00:39:06.666Z,99.90
2023-03-11T00:41:34.085Z,99.90
2023-03-11T00:44:00.792Z,99.90
2023-03-11T00:46:28.540Z,99.90
2023-03-11T00:48:55.300Z,99.90
2023-03-11T00:51:21.969Z,99.90
2023-03-11T00:53:48.584Z,99.90
2023-03-11T00:56:15.980Z,99.90
2023-03-11T00:58:43.510Z,99.90
2023-03-11T01:01:11.475Z,99.90
2023-03-11T01:03:38.265Z,99.90
2023-03-11T01:06:05.407Z,99.90
2023-03-11T01:08:32.444Z,99.90
2023-03-11T01:10:59.390Z,99.90
2023-03-11T01:13:27.156Z,99.90
2023-03-11T01:15:54.047Z,99.90
2023-03-11T01:18:20.717Z,99.90
2023-03-11T01:20:47.345Z,99.90
2023-03-11T01:23:14.593Z,99.90
2023-03-11T01:25:41.428Z,99.90
2023-03-11T01:28:11.133Z,99.90
2023-03-11T01:30:38.786Z,99.90
2023-03-11T01:33:05.886Z,99.90
2023-03-11T01:35:33.254Z,99.90
2023-03-11T01:38:00.227Z,99.90
2023-03-11T01:40:29.651Z,99.90
2023-03-11T01:42:56.383Z,99.90
2023-03-11T01:45:33.395Z,99.90
2023-03-11T01:48:00.137Z,99.90
2023-03-11T01:50:30.453Z,99.90
2023-03-11T01:52:57.153Z,99.90
2023-03-11T01:55:23.780Z,99.90
2023-03-11T01:57:51.778Z,99.90
2023-03-11T02:00:18.881Z,99.90
2023-03-11T02:02:51.325Z,99.90
2023-03-11T02:05:18.957Z,99.90
2023-03-11T02:07:45.617Z,99.90
2023-03-11T02:10:13.606Z,99.90
2023-03-11T02:12:40.551Z,99.90
2023-03-11T02:15:08.400Z,99.90
2023-03-11T02:17:36.432Z,99.90
2023-03-11T02:20:05.868Z,99.90
2023-03-11T02:22:35.513Z,99.90
2023-03-11T02:25:21.003Z,99.90
2023-03-11T02:27:49.144Z,99.90
2023-03-11T02:30:16.794Z,99.90
2023-03-11T02:32:44.916Z,99.90
2023-03-11T02:35:11.594Z,99.90
2023-03-11T02:37:43.414Z,99.90
2023-03-11T02:40:24.118Z,99.90
2023-03-11T02:42:51.839Z,99.90
2023-03-11T02:45:20.410Z,99.90
2023-03-11T02:47:47.004Z,99.90
2023-03-11T02:50:15.177Z,99.90
2023-03-11T02:52:41.937Z,99.90
2023-03-11T02:55:09.980Z,99.90
2023-03-11T02:57:36.961Z,99.90
2023-03-11T03:00:10.892Z,99.90
2023-03-11T03:02:37.696Z,99.90
2023-03-11T03:05:04.417Z,99.90
2023-03-11T03:07:31.079Z,99.90
2023-03-11T03:09:57.747Z,99.90
2023-03-11T03:12:24.668Z,99.90
2023-03-11T03:14:51.428Z,99.90
2023-03-11T03:17:18.152Z,99.90
2023-03-11T03:19:44.845Z,99.90
2023-03-11T03:22:11.440Z,99.90
2023-03-11T03:24:38.129Z,99.90
2023-03-11T03:27:04.855Z,99.90
2023-03-11T03:29:31.464Z,99.90
2023-03-11T03:31:58.161Z,99.90
2023-03-11T03:34:24.831Z,99.90
2023-03-11T03:36:51.486Z,99.90
2023-03-11T03:39:19.842Z,99.90
2023-03-11T03:41:46.550Z,99.90
2023-03-11T03:44:13.171Z,99.90
2023-03-11T03:46:39.800Z,99.90
2023-03-11T03:49:06.532Z,99.90
2023-03-11T03:51:34.157Z,99.90
2023-03-11T03:54:00.774Z,99.90
2023-03-11T03:56:27.368Z,99.90
2023-03-11T03:58:54.244Z,99.90
2023-03-11T04:01:20.847Z,99.90
2023-03-11T04:03:47.562Z,99.90
2023-03-11T04:06:18.955Z,99.90
2023-03-11T04:08:45.706Z,99.90
2023-03-11T04:11:12.388Z,99.90
2023-03-11T04:13:39.222Z,99.90
2023-03-11T04:16:06.704Z,99.90
2023-03-11T04:18:33.735Z,99.90
2023-03-11T04:21:00.422Z,99.90
2023-03-11T04:23:27.043Z,99.90
2023-03-11T04:25:53.736Z,99.90
2023-03-11T04:28:20.378Z,99.90
2023-03-11T04:30:47.088Z,99.90
2023-03-11T04:33:13.775Z,99.90
2023-03-11T04:35:40.489Z,99.90
2023-03-11T04:38:07.178Z,99.90
2023-03-11T04:40:33.850Z,99.90
2023-03-11T04:43:00.470Z,99.90
2023-03-11T04:45:27.076Z,99.90
2023-03-11T04:47:53.845Z,99.90
2023-03-11T04:50:21.059Z,99.90
2023-03-11T04:52:48.084Z,99.90
2023-03-11T04:55:15.182Z,99.90
2023-03-11T04:57:42.380Z,99.90
2023-03-11T05:00:11.480Z,99.90
2023-03-11T05:02:38.853Z,99.90
2023-03-11T05:05:06.032Z,99.90
2023-03-11T05:07:32.754Z,99.90
2023-03-11T05:09:59.337Z,99.90
2023-03-11T05:12:25.978Z,99.90
2023-03-11T05:14:52.590Z,99.90
2023-03-11T05:17:19.436Z,99.90
2023-03-11T05:19:46.199Z,99.90
2023-03-11T05:22:13.027Z,99.90
2023-03-11T05:24:39.670Z,99.90
2023-03-11T05:27:06.382Z,99.90
2023-03-11T05:29:33.105Z,99.90
2023-03-11T05:31:59.733Z,99.90
2023-03-11T05:34:26.410Z,99.90
2023-03-11T05:36:53.063Z,99.90
2023-03-11T05:39:19.658Z,99.90
2023-03-11T05:41:46.477Z,99.90
2023-03-11T05:44:13.148Z,99.90
2023-03-11T05:46:39.968Z,99.90
2023-03-11T05:49:06.676Z,99.90
2023-03-11T05:51:33.341Z,99.90
2023-03-11T05:54:00.350Z,99.90
2023-03-11T05:56:27.013Z,99.90
2023-03-11T05:58:53.625Z,99.90
2023-03-11T06:01:20.840Z,99.90
2023-03-11T06:03:47.573Z,99.90
2023-03-11T06:06:14.387Z,99.90
2023-03-11T06:08:45.915Z,99.90
2023-03-11T06:11:12.955Z,99.90
2023-03-11T06:13:39.597Z,99.90
2023-03-11T06:16:06.915Z,99.90
2023-03-11T06:18:33.615Z,99.90
2023-03-11T06:21:01.161Z,99.90
2023-03-11T06:23:28.343Z,99.90
2023-03-11T06:26:02.129Z,99.90
2023-03-11T06:28:29.312Z,99.90
2023-03-11T06:30:58.817Z,99.90
2023-03-11T06:33:25.499Z,99.80
2023-03-11T06:36:05.469Z,99.90
2023-03-11T06:38:32.283Z,99.80
2023-03-11T06:41:00.233Z,99.20
2023-03-11T06:43:27.263Z,99.30
2023-03-11T06:45:53.976Z,99.20
2023-03-11T06:48:20.660Z,99.70
2023-03-11T06:50:54.639Z,99.30
2023-03-11T06:53:22.448Z,98.90
2023-03-11T06:56:01.251Z,98.30
2023-03-11T06:58:27.933Z,98.40
2023-03-11T07:00:54.815Z,97.90
2023-03-11T07:03:21.422Z,97.60
2023-03-11T07:05:50.429Z,97.60
2023-03-11T07:08:17.044Z,96.80
2023-03-11T07:10:43.751Z,96.30
2023-03-11T07:13:10.383Z,96.20
2023-03-11T07:15:37.102Z,96.10
2023-03-11T07:18:03.830Z,96.30
2023-03-11T07:20:30.588Z,96.40
2023-03-11T07:22:57.238Z,96.20
2023-03-11T07:25:23.906Z,96.40
2023-03-11T07:27:50.577Z,95.80
2023-03-11T07:30:17.382Z,95.70
2023-03-11T07:32:44.077Z,95.70
2023-03-11T07:35:10.769Z,94.70
2023-03-11T07:37:37.393Z,94.40
2023-03-11T07:40:04.142Z,94.20
2023-03-11T07:42:30.779Z,94.30
2023-03-11T07:44:57.402Z,93.70
2023-03-11T07:47:24.736Z,93.40
2023-03-11T07:49:51.326Z,93.00
2023-03-11T07:52:17.956Z,92.80
2023-03-11T07:54:45.299Z,92.30
2023-03-11T07:57:16.977Z,92.60
2023-03-11T07:59:43.847Z,91.90
2023-03-11T08:02:11.083Z,92.10
2023-03-11T08:04:37.718Z,91.20
2023-03-11T08:07:04.362Z,90.50
2023-03-11T08:09:31.009Z,90.10
2023-03-11T08:11:57.642Z,84.40
2023-03-11T08:14:24.259Z,77.80
2023-03-11T08:16:50.868Z,78.70
2023-03-11T08:19:17.507Z,70.10
2023-03-11T08:21:44.114Z,61.10
2023-03-11T08:24:12.024Z,53.60
2023-03-11T08:26:38.673Z,52.90
2023-03-11T08:29:05.321Z,54.00
2023-03-11T08:31:32.672Z,53.40
2023-03-11T08:34:01.091Z,51.70
2023-03-11T08:36:28.029Z,52.80
2023-03-11T08:38:54.686Z,50.30
2023-03-11T08:41:21.413Z,49.50
2023-03-11T08:43:48.220Z,48.50
2023-03-11T08:46:17.709Z,48.10
2023-03-11T08:48:44.369Z,46.00
2023-03-11T08:51:11.913Z,43.60
2023-03-11T08:53:38.959Z,44.50
2023-03-11T08:56:05.897Z,46.50
2023-03-11T08:58:32.620Z,48.10
2023-03-11T09:00:59.279Z,47.30
2023-03-11T09:03:25.901Z,46.40
2023-03-11T09:05:59.474Z,44.80
2023-03-11T09:08:26.437Z,44.50
2023-03-11T09:10:53.044Z,42.90
2023-03-11T09:13:19.705Z,42.40
2023-03-11T09:15:47.707Z,38.00
2023-03-11T09:18:15.145Z,36.90
2023-03-11T09:20:42.041Z,35.70
2023-03-11T09:23:09.273Z,34.70
2023-03-11T09:25:36.088Z,34.10
2023-03-11T09:28:02.780Z,33.80
2023-03-11T09:30:29.465Z,33.40
2023-03-11T09:32:56.272Z,34.10
2023-03-11T09:35:23.350Z,37.90
2023-03-11T09:37:50.084Z,35.30
2023-03-11T09:40:18.608Z,34.40
2023-03-11T09:43:08.887Z,36.20
2023-03-11T09:45:39.234Z,33.70
2023-03-11T09:48:16.737Z,33.80
2023-03-11T09:50:48.778Z,34.40
2023-03-11T09:53:18.060Z,31.20
2023-03-11T09:55:46.389Z,29.00
2023-03-11T09:58:19.343Z,28.20
2023-03-11T10:00:46.816Z,28.70
2023-03-11T10:03:26.469Z,28.80
2023-03-11T10:05:55.086Z,28.50
2023-03-11T10:08:24.842Z,29.20
2023-03-11T10:11:11.663Z,29.60
2023-03-11T10:13:50.482Z,31.00
2023-03-11T10:16:25.010Z,33.40
2023-03-11T10:19:04.818Z,35.50
2023-03-11T10:21:34.487Z,35.50
2023-03-11T10:24:10.461Z,37.40
2023-03-11T10:26:42.889Z,37.70
2023-03-11T10:29:18.858Z,39.90
2023-03-11T10:31:48.604Z,39.90
2023-03-11T10:34:15.527Z,39.70
2023-03-11T10:36:45.134Z,39.50
2023-03-11T10:39:12.117Z,39.50
2023-03-11T10:41:49.479Z,39.50
2023-03-11T10:44:35.712Z,41.60
2023-03-11T10:47:02.670Z,41.10
2023-03-11T10:49:29.518Z,43.70
2023-03-11T10:51:57.186Z,44.90
2023-03-11T10:54:31.760Z,46.00
2023-03-11T10:56:59.998Z,47.10
2023-03-11T10:59:28.735Z,47.30
2023-03-11T11:01:56.631Z,47.30
2023-03-11T11:04:41.424Z,44.60
2023-03-11T11:07:28.403Z,44.40
2023-03-11T11:10:13.422Z,44.80
2023-03-11T11:12:51.510Z,43.00
2023-03-11T11:15:22.765Z,44.00
2023-03-11T11:17:49.904Z,43.80
2023-03-11T11:20:19.214Z,43.10
2023-03-11T11:22:53.318Z,42.70
2023-03-11T11:25:36.609Z,40.30
2023-03-11T11:28:14.596Z,41.30
2023-03-11T11:30:56.675Z,40.70
2023-03-11T11:33:25.581Z,42.40
2023-03-11T11:35:53.797Z,43.50
2023-03-11T11:38:22.428Z,43.80
2023-03-11T11:40:49.024Z,42.50
2023-03-11T11:43:20.133Z,43.90
2023-03-11T11:45:49.170Z,46.00
2023-03-11T11:48:34.764Z,45.30
2023-03-11T11:51:02.890Z,46.20
2023-03-11T11:53:37.061Z,45.20
2023-03-11T11:56:03.733Z,46.80
2023-03-11T11:58:30.843Z,48.50
2023-03-11T12:00:57.477Z,48.90
2023-03-11T12:03:43.670Z,50.30
2023-03-11T12:06:13.466Z,50.50
2023-03-11T12:08:45.405Z,50.80
2023-03-11T12:11:16.021Z,51.40
2023-03-11T12:13:49.382Z,52.80
2023-03-11T12:16:19.156Z,52.00
2023-03-11T12:19:10.111Z,52.40
2023-03-11T12:21:55.219Z,52.90
2023-03-11T12:24:43.772Z,52.60
2023-03-11T12:27:16.628Z,52.40
2023-03-11T12:29:45.655Z,53.00
2023-03-11T12:32:21.479Z,53.70
2023-03-11T12:34:48.944Z,53.80
2023-03-11T12:37:18.665Z,54.40
2023-03-11T12:39:45.302Z,54.30
2023-03-11T12:42:11.924Z,55.80
2023-03-11T12:44:39.401Z,56.00
2023-03-11T12:47:09.902Z,56.20
2023-03-11T12:49:37.906Z,56.00
2023-03-11T12:52:05.998Z,56.80
2023-03-11T12:54:34.315Z,57.10
2023-03-11T12:57:24.324Z,56.90
2023-03-11T13:00:07.719Z,57.50
2023-03-11T13:02:53.189Z,57.60
2023-03-11T13:05:38.220Z,57.00
2023-03-11T13:08:12.526Z,57.40
2023-03-11T13:10:39.226Z,56.90
2023-03-11T13:13:24.779Z,56.80
2023-03-11T13:15:51.870Z,56.60
2023-03-11T13:18:24.121Z,57.00
2023-03-11T13:20:56.152Z,56.60
2023-03-11T13:23:26.004Z,56.30
2023-03-11T13:25:55.548Z,56.50
2023-03-11T13:28:40.966Z,56.10
2023-03-11T13:31:13.697Z,56.30
2023-03-11T13:33:43.362Z,56.90
2023-03-11T13:36:14.617Z,57.70
2023-03-11T13:38:47.425Z,56.80
2023-03-11T13:41:16.153Z,56.90
2023-03-11T13:43:50.209Z,56.60
2023-03-11T13:46:28.910Z,56.80
2023-03-11T13:49:00.623Z,57.20
2023-03-11T13:51:32.948Z,57.30
2023-03-11T13:54:02.154Z,57.60
2023-03-11T13:56:31.377Z,57.30
2023-03-11T13:59:17.575Z,56.90
2023-03-11T14:01:55.919Z,57.50
2023-03-11T14:04:28.266Z,58.10
2023-03-11T14:06:55.035Z,57.60
2023-03-11T14:09:23.253Z,56.80
2023-03-11T14:11:49.947Z,57.30
2023-03-11T14:14:28.141Z,57.00
2023-03-11T14:16:55.535Z,57.80
2023-03-11T14:19:23.417Z,58.10
2023-03-11T14:21:51.575Z,58.80
2023-03-11T14:24:29.742Z,59.20
2023-03-11T14:26:58.178Z,60.00
2023-03-11T14:29:32.878Z,59.30
2023-03-11T14:31:59.610Z,58.90
2023-03-11T14:34:28.799Z,58.50
2023-03-11T14:36:57.295Z,59.40
2023-03-11T14:39:37.686Z,58.60
2023-03-11T14:42:04.271Z,59.10
2023-03-11T14:44:32.421Z,59.30
2023-03-11T14:47:17.521Z,59.00
2023-03-11T14:49:44.869Z,59.30
2023-03-11T14:52:16.939Z,59.20
2023-03-11T14:54:44.405Z,59.20
2023-03-11T14:57:24.496Z,59.10
2023-03-11T14:59:51.428Z,59.50
2023-03-11T15:02:30.932Z,59.90
2023-03-11T15:04:59.492Z,60.30
2023-03-11T15:07:27.425Z,61.00
2023-03-11T15:09:54.226Z,60.60
2023-03-11T15:12:35.366Z,60.50
2023-03-11T15:15:02.012Z,60.20
2023-03-11T15:17:42.872Z,60.50
2023-03-11T15:20:29.420Z,59.90
2023-03-11T15:22:58.277Z,60.60
2023-03-11T15:25:24.937Z,60.40
2023-03-11T15:27:51.568Z,61.30
2023-03-11T15:30:18.362Z,62.00
2023-03-11T15:32:45.615Z,61.80
2023-03-11T15:35:24.141Z,62.00
2023-03-11T15:38:10.827Z,62.80
2023-03-11T15:40:45.281Z,63.10
2023-03-11T15:43:19.945Z,63.80
2023-03-11T15:45:46.647Z,63.60
2023-03-11T15:48:13.712Z,64.00
2023-03-11T15:50:52.918Z,64.60
2023-03-11T15:53:20.844Z,64.40
2023-03-11T15:55:48.123Z,65.10
2023-03-11T15:58:16.698Z,65.70
2023-03-11T16:00:50.744Z,65.50
2023-03-11T16:03:17.711Z,65.70
2023-03-11T16:05:44.368Z,66.60
2023-03-11T16:08:11.015Z,67.50
2023-03-11T16:10:38.089Z,68.40
2023-03-11T16:13:04.801Z,68.50
2023-03-11T16:15:35.657Z,68.70
2023-03-11T16:18:03.827Z,68.00
2023-03-11T16:20:32.289Z,69.00
2023-03-11T16:22:59.469Z,68.20
2023-03-11T16:25:36.811Z,67.90
2023-03-11T16:28:03.716Z,68.20
2023-03-11T16:30:31.197Z,68.70
2023-03-11T16:32:58.077Z,68.70
2023-03-11T16:35:25.239Z,68.30
2023-03-11T16:37:52.197Z,68.30
2023-03-11T16:40:25.210Z,68.40
2023-03-11T16:42:54.499Z,68.70
2023-03-11T16:45:21.179Z,69.00
2023-03-11T16:47:47.819Z,69.40
2023-03-11T16:50:14.432Z,69.80
2023-03-11T16:52:41.130Z,69.90
2023-03-11T16:55:08.186Z,70.20
2023-03-11T16:57:34.771Z,70.40
2023-03-11T17:00:01.940Z,70.90
2023-03-11T17:02:28.571Z,71.50
2023-03-11T17:04:55.775Z,71.00
2023-03-11T17:07:24.143Z,71.60
2023-03-11T17:09:51.578Z,72.00
2023-03-11T17:12:19.177Z,72.00
2023-03-11T17:14:46.212Z,72.20
2023-03-11T17:17:12.939Z,72.90
2023-03-11T17:19:39.646Z,72.10
2023-03-11T17:22:06.304Z,72.40
2023-03-11T17:24:32.974Z,72.60
2023-03-11T17:26:59.602Z,72.70
2023-03-11T17:29:26.256Z,73.00
2023-03-11T17:31:53.059Z,73.20
2023-03-11T17:34:19.770Z,73.50
2023-03-11T17:36:46.400Z,73.40
2023-03-11T17:39:13.233Z,73.80
2023-03-11T17:41:39.821Z,74.20
2023-03-11T17:44:06.999Z,74.20
2023-03-11T17:46:36.220Z,73.70
2023-03-11T17:49:03.040Z,73.80
2023-03-11T17:51:29.659Z,73.40
2023-03-11T17:53:56.321Z,73.60
2023-03-11T17:56:23.296Z,73.50
2023-03-11T17:58:50.321Z,74.40
2023-03-11T18:01:18.966Z,74.40
2023-03-11T18:03:45.728Z,74.40
2023-03-11T18:06:12.910Z,74.70
2023-03-11T18:08:39.841Z,74.20
2023-03-11T18:11:18.880Z,74.90
2023-03-11T18:13:46.403Z,75.10
2023-03-11T18:16:17.798Z,75.60
2023-03-11T18:18:44.485Z,75.60
2023-03-11T18:21:21.425Z,75.40
2023-03-11T18:23:48.477Z,76.00
2023-03-11T18:26:18.796Z,75.50
2023-03-11T18:28:45.841Z,76.10
2023-03-11T18:31:17.454Z,76.30
2023-03-11T18:33:49.057Z,76.60
2023-03-11T18:36:17.280Z,76.00
2023-03-11T18:38:44.080Z,75.10
2023-03-11T18:41:10.743Z,75.20
2023-03-11T18:43:37.525Z,74.90
2023-03-11T18:46:07.708Z,76.10
2023-03-11T18:48:34.390Z,75.50
2023-03-11T18:51:01.017Z,75.70
2023-03-11T18:53:27.643Z,76.40
2023-03-11T18:56:01.619Z,76.70
2023-03-11T18:58:29.030Z,76.90
2023-03-11T19:00:55.649Z,76.90
2023-03-11T19:03:22.270Z,76.90
2023-03-11T19:05:50.825Z,77.10
2023-03-11T19:08:17.638Z,77.10
2023-03-11T19:10:44.285Z,77.10
2023-03-11T19:13:10.921Z,77.20
2023-03-11T19:15:41.090Z,78.10
2023-03-11T19:18:08.129Z,78.20
2023-03-11T19:20:35.110Z,78.20
2023-03-11T19:23:01.799Z,78.60
2023-03-11T19:25:28.600Z,78.70
2023-03-11T19:27:55.858Z,78.10
2023-03-11T19:30:22.538Z,78.30
2023-03-11T19:32:52.686Z,78.20
2023-03-11T19:35:20.950Z,78.50
2023-03-11T19:37:48.106Z,79.30
2023-03-11T19:40:14.996Z,79.80
2023-03-11T19:42:41.761Z,79.30
2023-03-11T19:45:08.732Z,79.30
2023-03-11T19:47:35.452Z,79.40
2023-03-11T19:50:02.167Z,80.20
2023-03-11T19:52:28.940Z,80.00
2023-03-11T19:54:55.619Z,79.30
2023-03-11T19:57:22.262Z,79.80
2023-03-11T19:59:48.978Z,79.60
2023-03-11T20:02:16.454Z,79.60
2023-03-11T20:04:43.586Z,79.40
2023-03-11T20:07:10.312Z,79.00
2023-03-11T20:09:36.945Z,79.10
2023-03-11T20:12:03.786Z,78.70
2023-03-11T20:14:30.435Z,78.70
2023-03-11T20:16:57.091Z,79.00
2023-03-11T20:19:23.774Z,79.40
2023-03-11T20:21:50.488Z,79.10
2023-03-11T20:24:17.269Z,79.00
2023-03-11T20:26:44.259Z,79.50
2023-03-11T20:29:11.125Z,79.80
2023-03-11T20:31:37.957Z,79.90
2023-03-11T20:34:04.976Z,80.00
2023-03-11T20:36:33.169Z,80.00
2023-03-11T20:39:00.161Z,81.10
2023-03-11T20:41:27.478Z,81.20
2023-03-11T20:43:55.675Z,81.20
2023-03-11T20:46:22.671Z,81.90
2023-03-11T20:48:49.471Z,82.40
2023-03-11T20:51:19.486Z,82.30
2023-03-11T20:53:47.213Z,82.20
2023-03-11T20:56:15.055Z,82.80
2023-03-11T20:58:42.366Z,83.20
2023-03-11T21:01:17.435Z,83.60
2023-03-11T21:03:44.478Z,84.00
2023-03-11T21:06:22.636Z,84.30
2023-03-11T21:08:49.665Z,84.60
2023-03-11T21:11:16.943Z,85.30
2023-03-11T21:13:43.587Z,85.50
2023-03-11T21:16:10.514Z,85.60
2023-03-11T21:18:37.712Z,85.90
2023-03-11T21:21:08.168Z,86.40
2023-03-11T21:23:35.843Z,86.60
2023-03-11T21:26:04.179Z,87.20
2023-03-11T21:28:31.288Z,88.00
2023-03-11T21:30:58.945Z,88.00
2023-03-11T21:33:25.817Z,87.80
2023-03-11T21:35:56.738Z,87.80
2023-03-11T21:38:24.300Z,87.90
2023-03-11T21:40:51.502Z,88.10
2023-03-11T21:43:18.935Z,88.40
2023-03-11T21:45:46.895Z,88.80
2023-03-11T21:48:14.237Z,89.10
2023-03-11T21:50:41.354Z,89.60
2023-03-11T21:53:08.122Z,90.10
2023-03-11T21:55:34.890Z,90.30
2023-03-11T21:58:01.617Z,91.10
2023-03-11T22:00:28.451Z,91.40
2023-03-11T22:02:55.260Z,91.50
2023-03-11T22:05:22.145Z,91.60
2023-03-11T22:07:48.862Z,91.80
2023-03-11T22:10:15.782Z,92.10
2023-03-11T22:12:42.467Z,92.30
2023-03-11T22:15:09.318Z,92.50
2023-03-11T22:17:36.715Z,92.70
2023-03-11T22:20:05.620Z,93.20
2023-03-11T22:22:32.655Z,93.10
2023-03-11T22:24:59.354Z,93.30
2023-03-11T22:27:26.077Z,93.60
2023-03-11T22:29:52.926Z,94.00
2023-03-11T22:32:19.765Z,94.70
2023-03-11T22:34:46.539Z,95.20
2023-03-11T22:37:13.228Z,95.90
2023-03-11T22:39:39.898Z,96.40
2023-03-11T22:42:06.689Z,96.80
2023-03-11T22:44:33.490Z,97.40
2023-03-11T22:47:00.366Z,97.80
2023-03-11T22:49:27.026Z,98.50
2023-03-11T22:51:53.843Z,98.90
2023-03-11T22:54:23.616Z,99.70
2023-03-11T22:56:50.256Z,99.90
2023-03-11T22:59:16.845Z,99.90
2023-03-11T23:01:43.464Z,99.90
2023-03-11T23:04:10.204Z,99.90
2023-03-11T23:06:36.891Z,99.90
2023-03-11T23:09:04.021Z,99.90
2023-03-11T23:11:30.811Z,99.90
2023-03-11T23:13:57.600Z,99.90
2023-03-11T23:16:26.032Z,99.90
2023-03-11T23:18:54.116Z,99.90
2023-03-11T23:21:24.717Z,99.90
2023-03-11T23:23:52.935Z,99.90
2023-03-11T23:26:20.335Z,99.90
2023-03-11T23:28:47.764Z,99.90
2023-03-11T23:31:15.276Z,99.90
2023-03-11T23:33:42.283Z,99.90
2023-03-11T23:36:10.668Z,99.90
2023-03-11T23:38:37.788Z,99.90
2023-03-11T23:41:12.598Z,99.90
2023-03-11T23:43:39.730Z,99.90
2023-03-11T23:46:06.643Z,99.90
2023-03-11T23:48:33.917Z,99.90
2023-03-11T23:51:00.693Z,99.90
2023-03-11T23:53:27.579Z,99.90
2023-03-11T23:55:54.480Z,99.90
2023-03-11T23:58:21.847Z,99.90
